createdAt,value
2023-05-07T00:01:06.899Z,6.10
2023-05-07T00:03:34.937Z,6.05
2023-05-07T00:06:05.424Z,4.83
2023-05-07T00:08:33.453Z,7.57
2023-05-07T00:11:01.318Z,5.37
2023-05-07T00:13:31.659Z,7.17
2023-05-07T00:16:00.895Z,5.77
2023-05-07T00:18:28.681Z,5.30
2023-05-07T00:20:57.078Z,6.30
2023-05-07T00:23:25.332Z,6.07
2023-05-07T00:25:55.187Z,6.27
2023-05-07T00:28:22.896Z,5.70
2023-05-07T00:30:50.915Z,5.37
2023-05-07T00:33:21.621Z,7.63
2023-05-07T00:35:49.793Z,7.23
2023-05-07T00:38:17.802Z,5.43
2023-05-07T00:40:46.385Z,4.13
2023-05-07T00:43:14.177Z,5.73
2023-05-07T00:45:42.211Z,7.23
2023-05-07T00:48:10.149Z,6.43
2023-05-07T00:50:39.346Z,5.50
2023-05-07T00:53:08.374Z,6.17
2023-05-07T00:55:37.892Z,6.17
2023-05-07T00:58:06.712Z,8.17
2023-05-07T01:00:34.605Z,5.73
2023-05-07T01:03:02.598Z,5.30
2023-05-07T01:05:32.037Z,4.63
2023-05-07T01:08:03.165Z,4.93
2023-05-07T01:10:33.354Z,4.63
2023-05-07T01:13:02.675Z,4.40
2023-05-07T01:15:30.785Z,4.43
2023-05-07T01:17:59.129Z,4.87
2023-05-07T01:20:33.514Z,4.97
2023-05-07T01:23:04.587Z,4.23
2023-05-07T01:25:32.599Z,4.40
2023-05-07T01:28:03.190Z,5.73
2023-05-07T01:30:36.754Z,4.97
2023-05-07T01:33:10.974Z,5.60
2023-05-07T01:35:46.082Z,4.40
2023-05-07T01:38:15.825Z,4.57
2023-05-07T01:40:43.974Z,5.03
2023-05-07T01:43:12.732Z,4.20
2023-05-07T01:45:42.211Z,3.60
2023-05-07T01:48:11.974Z,4.73
2023-05-07T01:50:40.919Z,4.87
2023-05-07T01:53:08.870Z,4.97
2023-05-07T01:55:38.780Z,6.33
2023-05-07T01:58:06.790Z,5.67
2023-05-07T02:00:34.846Z,4.43
2023-05-07T02:03:02.986Z,3.30
2023-05-07T02:05:41.979Z,4.30
2023-05-07T02:08:35.842Z,5.63
2023-05-07T02:11:05.278Z,4.27
2023-05-07T02:13:34.776Z,4.47
2023-05-07T02:16:03.415Z,6.63
2023-05-07T02:18:31.577Z,5.77
2023-05-07T02:20:59.826Z,5.17
2023-05-07T02:23:27.628Z,5.30
2023-05-07T02:25:55.765Z,5.70
2023-05-07T02:28:24.974Z,3.87
2023-05-07T02:31:01.537Z,3.77
2023-05-07T02:33:31.654Z,3.97
2023-05-07T02:36:08.154Z,5.87
2023-05-07T02:38:39.670Z,4.20
2023-05-07T02:41:07.671Z,4.70
2023-05-07T02:43:36.962Z,4.50
2023-05-07T02:46:06.242Z,4.60
2023-05-07T02:48:36.995Z,4.00
2023-05-07T02:51:06.398Z,4.53
2023-05-07T02:53:35.604Z,4.93
2023-05-07T02:56:03.916Z,4.17
2023-05-07T02:58:31.777Z,4.17
2023-05-07T03:01:02.560Z,4.27
2023-05-07T03:03:44.063Z,3.50
2023-05-07T03:06:11.992Z,4.40
2023-05-07T03:08:39.906Z,4.80
2023-05-07T03:11:07.849Z,5.40
2023-05-07T03:13:35.750Z,4.50
2023-05-07T03:16:05.114Z,6.27
2023-05-07T03:18:33.122Z,5.10
2023-05-07T03:21:00.962Z,6.13
2023-05-07T03:23:28.809Z,6.50
2023-05-07T03:25:56.526Z,6.13
2023-05-07T03:28:24.623Z,5.67
2023-05-07T03:30:58.029Z,4.87
2023-05-07T03:33:28.373Z,6.23
2023-05-07T03:35:56.801Z,6.30
2023-05-07T03:38:27.094Z,4.40
2023-05-07T03:40:55.662Z,5.13
2023-05-07T03:43:23.717Z,5.30
2023-05-07T03:45:59.295Z,5.60
2023-05-07T03:48:31.060Z,5.57
2023-05-07T03:51:00.898Z,5.30
2023-05-07T03:53:32.955Z,4.70
2023-05-07T03:56:01.173Z,5.00
2023-05-07T03:58:32.233Z,5.40
2023-05-07T04:01:04.728Z,5.20
2023-05-07T04:03:36.344Z,8.10
2023-05-07T04:06:05.510Z,6.10
2023-05-07T04:08:35.992Z,7.77
2023-05-07T04:11:05.426Z,6.27
2023-05-07T04:13:36.050Z,6.43
2023-05-07T04:16:07.793Z,4.70
2023-05-07T04:18:39.005Z,5.53
2023-05-07T04:21:07.441Z,4.90
2023-05-07T04:23:38.129Z,4.90
2023-05-07T04:26:10.046Z,5.40
2023-05-07T04:28:41.569Z,4.63
2023-05-07T04:31:09.639Z,4.70
2023-05-07T04:33:40.677Z,5.90
2023-05-07T04:36:12.317Z,5.67
2023-05-07T04:38:49.620Z,4.77
2023-05-07T04:41:19.286Z,4.30
2023-05-07T04:43:47.050Z,4.50
2023-05-07T04:46:19.246Z,5.03
2023-05-07T04:48:48.912Z,3.27
2023-05-07T04:51:17.471Z,4.90
2023-05-07T04:53:45.703Z,4.50
2023-05-07T04:56:13.564Z,5.20
2023-05-07T04:58:47.037Z,4.77
2023-05-07T05:01:16.032Z,6.13
2023-05-07T05:03:43.913Z,6.50
2023-05-07T05:06:14.163Z,5.00
2023-05-07T05:08:45.835Z,5.67
2023-05-07T05:11:14.154Z,4.50
2023-05-07T05:13:42.124Z,5.27
2023-05-07T05:16:18.035Z,3.80
2023-05-07T05:18:46.551Z,4.23
2023-05-07T05:21:18.427Z,4.77
2023-05-07T05:23:55.855Z,4.50
2023-05-07T05:26:26.876Z,4.63
2023-05-07T05:28:56.967Z,4.33
2023-05-07T05:31:28.030Z,5.73
2023-05-07T05:33:56.567Z,4.53
2023-05-07T05:36:25.772Z,4.53
2023-05-07T05:38:57.513Z,3.63
2023-05-07T05:41:25.946Z,3.83
2023-05-07T05:43:54.568Z,3.47
2023-05-07T05:46:23.009Z,6.83
2023-05-07T05:48:52.892Z,4.27
2023-05-07T05:51:20.728Z,3.50
2023-05-07T05:53:49.995Z,3.60
2023-05-07T05:56:18.538Z,4.77
2023-05-07T05:58:46.577Z,4.60
2023-05-07T06:01:14.593Z,5.23
2023-05-07T06:03:43.044Z,5.43
2023-05-07T06:06:16.276Z,3.80
2023-05-07T06:08:48.304Z,4.27
2023-05-07T06:11:23.243Z,4.20
2023-05-07T06:13:51.521Z,3.70
2023-05-07T06:16:19.818Z,4.27
2023-05-07T06:18:48.285Z,7.03
2023-05-07T06:21:17.539Z,2.97
2023-05-07T06:23:45.623Z,3.97
2023-05-07T06:26:13.581Z,3.27
2023-05-07T06:28:46.184Z,4.40
2023-05-07T06:31:17.012Z,4.00
2023-05-07T06:33:50.807Z,4.73
2023-05-07T06:36:19.319Z,3.87
2023-05-07T06:38:47.946Z,3.70
2023-05-07T06:41:17.005Z,5.07
2023-05-07T06:43:46.832Z,3.42
2023-05-07T06:46:47.097Z,3.22
2023-05-07T06:49:16.059Z,3.83
2023-05-07T06:51:44.701Z,2.80
2023-05-07T06:54:12.774Z,4.03
2023-05-07T06:56:43.025Z,3.42
2023-05-07T06:59:12.345Z,2.70
2023-05-07T07:01:42.434Z,4.78
2023-05-07T07:04:12.293Z,7.60
2023-05-07T07:06:42.552Z,4.00
2023-05-07T07:09:13.101Z,2.55
2023-05-07T07:11:42.105Z,3.45
2023-05-07T07:14:14.178Z,4.32
2023-05-07T07:16:47.830Z,3.55
2023-05-07T07:19:17.255Z,3.38
2023-05-07T07:21:49.185Z,3.30
2023-05-07T07:24:21.943Z,4.50
2023-05-07T07:26:52.791Z,4.10
2023-05-07T07:29:23.619Z,3.03
2023-05-07T07:31:51.669Z,3.72
2023-05-07T07:34:21.286Z,3.42
2023-05-07T07:36:49.949Z,3.97
2023-05-07T07:39:19.794Z,3.35
2023-05-07T07:42:01.024Z,5.60
2023-05-07T07:44:32.543Z,3.53
2023-05-07T07:47:06.285Z,3.28
2023-05-07T07:49:34.825Z,2.78
2023-05-07T07:52:06.858Z,3.60
2023-05-07T07:54:37.803Z,3.42
2023-05-07T07:57:07.547Z,2.58
2023-05-07T07:59:39.144Z,3.78
2023-05-07T08:02:09.889Z,3.80
2023-05-07T08:04:38.600Z,3.37
2023-05-07T08:07:10.823Z,3.58
2023-05-07T08:09:42.861Z,3.60
2023-05-07T08:12:11.948Z,3.95
2023-05-07T08:14:46.304Z,3.58
2023-05-07T08:17:18.629Z,3.28
2023-05-07T08:19:48.672Z,4.03
2023-05-07T08:22:18.698Z,2.67
2023-05-07T08:24:46.852Z,2.83
2023-05-07T08:27:23.403Z,3.35
2023-05-07T08:30:00.247Z,3.22
2023-05-07T08:32:30.301Z,3.25
2023-05-07T08:34:58.888Z,3.25
2023-05-07T08:37:26.770Z,2.63
2023-05-07T08:39:57.131Z,3.78
2023-05-07T08:42:32.926Z,3.92
2023-05-07T08:45:06.663Z,3.25
2023-05-07T08:47:48.406Z,2.75
2023-05-07T08:50:20.151Z,5.30
2023-05-07T08:52:49.358Z,4.10
2023-05-07T08:55:19.304Z,3.85
2023-05-07T08:57:47.924Z,3.63
2023-05-07T09:00:19.344Z,3.65
2023-05-07T09:02:51.439Z,3.17
2023-05-07T09:05:19.953Z,3.30
2023-05-07T09:07:48.803Z,4.75
2023-05-07T09:10:17.882Z,3.53
2023-05-07T09:12:49.349Z,2.33
2023-05-07T09:15:20.374Z,4.50
2023-05-07T09:17:48.407Z,3.97
2023-05-07T09:20:16.429Z,3.00
2023-05-07T09:22:45.260Z,3.40
2023-05-07T09:25:16.421Z,2.78
2023-05-07T09:27:44.419Z,2.92
2023-05-07T09:30:13.406Z,2.53
2023-05-07T09:32:43.153Z,5.40
2023-05-07T09:35:18.743Z,2.72
2023-05-07T09:37:51.596Z,2.83
2023-05-07T09:40:24.023Z,2.05
2023-05-07T09:42:53.006Z,3.80
2023-05-07T09:45:26.738Z,3.80
2023-05-07T09:47:58.806Z,3.60
2023-05-07T09:50:30.614Z,1.70
2023-05-07T09:52:59.813Z,3.25
2023-05-07T09:55:29.520Z,2.33
2023-05-07T09:57:59.482Z,2.10
2023-05-07T10:00:30.964Z,2.42
2023-05-07T10:03:11.371Z,3.17
2023-05-07T10:06:00.593Z,2.30
2023-05-07T10:08:31.545Z,3.85
2023-05-07T10:11:02.118Z,4.28
2023-05-07T10:13:33.829Z,4.30
2023-05-07T10:16:05.358Z,2.08
2023-05-07T10:18:42.538Z,6.72
2023-05-07T10:21:19.950Z,2.55
2023-05-07T10:23:52.308Z,12.88
2023-05-07T10:26:24.357Z,3.08
2023-05-07T10:28:58.517Z,8.10
2023-05-07T10:31:47.160Z,9.70
2023-05-07T10:34:24.219Z,4.95
2023-05-07T10:36:54.192Z,2.72
2023-05-07T10:39:24.093Z,1.70
2023-05-07T10:41:52.411Z,2.10
2023-05-07T10:44:30.590Z,2.72
2023-05-07T10:47:10.192Z,4.15
2023-05-07T10:50:25.091Z,2.88
2023-05-07T10:53:25.099Z,2.22
2023-05-07T10:56:28.837Z,2.40
2023-05-07T10:59:42.871Z,3.53
2023-05-07T11:02:22.918Z,2.70
2023-05-07T11:05:24.908Z,3.00
2023-05-07T11:08:13.053Z,2.58
2023-05-07T11:10:52.692Z,3.35
2023-05-07T11:13:46.536Z,3.45
2023-05-07T11:16:28.996Z,3.63
2023-05-07T11:19:16.151Z,2.45
2023-05-07T11:21:50.406Z,2.70
2023-05-07T11:24:48.537Z,2.88
2023-05-07T11:27:16.710Z,2.63
2023-05-07T11:29:49.118Z,2.20
2023-05-07T11:32:17.414Z,2.97
2023-05-07T11:34:54.003Z,3.35
2023-05-07T11:37:24.638Z,2.85
2023-05-07T11:40:08.979Z,3.03
2023-05-07T11:42:38.432Z,2.22
2023-05-07T11:45:08.286Z,2.67
2023-05-07T11:47:36.508Z,4.28
2023-05-07T11:50:11.520Z,2.25
2023-05-07T11:52:41.139Z,4.03
2023-05-07T11:55:10.113Z,2.75
2023-05-07T11:57:38.087Z,2.30
2023-05-07T12:00:07.683Z,2.55
2023-05-07T12:02:47.247Z,3.90
2023-05-07T12:05:18.675Z,1.90
2023-05-07T12:07:47.948Z,2.25
2023-05-07T12:10:16.375Z,4.40
2023-05-07T12:12:48.284Z,2.30
2023-05-07T12:15:18.237Z,3.08
2023-05-07T12:17:46.368Z,2.00
2023-05-07T12:20:14.698Z,2.45
2023-05-07T12:22:43.145Z,1.60
2023-05-07T12:25:12.791Z,3.70
2023-05-07T12:27:41.264Z,2.10
2023-05-07T12:30:12.411Z,1.50
2023-05-07T12:32:40.431Z,1.50
2023-05-07T12:35:09.243Z,2.30
2023-05-07T12:37:37.803Z,2.10
2023-05-07T12:40:07.271Z,4.32
2023-05-07T12:42:38.346Z,2.78
2023-05-07T12:45:12.255Z,4.15
2023-05-07T12:47:40.837Z,3.17
2023-05-07T12:50:09.375Z,2.25
2023-05-07T12:52:38.367Z,2.75
2023-05-07T12:55:07.512Z,3.58
2023-05-07T12:57:41.993Z,4.07
2023-05-07T13:00:10.952Z,2.42
2023-05-07T13:02:40.801Z,5.43
2023-05-07T13:05:11.440Z,5.00
2023-05-07T13:07:39.819Z,4.68
2023-05-07T13:10:09.008Z,4.93
2023-05-07T13:12:36.988Z,3.20
2023-05-07T13:15:07.471Z,3.47
2023-05-07T13:17:35.579Z,2.15
2023-05-07T13:20:03.639Z,1.88
2023-05-07T13:22:31.500Z,2.95
2023-05-07T13:24:59.324Z,1.20
2023-05-07T13:27:27.061Z,1.38
2023-05-07T13:29:54.904Z,2.53
2023-05-07T13:32:24.260Z,3.42
2023-05-07T13:34:52.290Z,3.65
2023-05-07T13:37:20.126Z,5.18
2023-05-07T13:39:50.486Z,3.15
2023-05-07T13:42:18.939Z,3.08
2023-05-07T13:44:47.023Z,3.75
2023-05-07T13:47:15.228Z,5.03
2023-05-07T13:49:44.680Z,3.65
2023-05-07T13:52:14.121Z,2.00
2023-05-07T13:54:42.574Z,2.22
2023-05-07T13:57:10.625Z,2.20
2023-05-07T13:59:40.904Z,2.35
2023-05-07T14:02:10.118Z,2.53
2023-05-07T14:04:39.442Z,2.63
2023-05-07T14:07:09.293Z,3.03
2023-05-07T14:09:40.128Z,1.38
2023-05-07T14:12:09.221Z,2.78
2023-05-07T14:14:37.151Z,2.13
2023-05-07T14:17:05.521Z,3.15
2023-05-07T14:19:34.010Z,1.50
2023-05-07T14:22:03.883Z,2.13
2023-05-07T14:24:38.760Z,3.13
2023-05-07T14:27:09.227Z,1.88
2023-05-07T14:29:37.279Z,3.88
2023-05-07T14:32:06.257Z,3.10
2023-05-07T14:34:36.158Z,3.53
2023-05-07T14:37:05.675Z,2.22
2023-05-07T14:39:34.910Z,3.22
2023-05-07T14:42:03.121Z,1.98
2023-05-07T14:44:32.346Z,2.20
2023-05-07T14:47:02.456Z,3.38
2023-05-07T14:49:30.854Z,2.10
2023-05-07T14:52:00.168Z,3.40
2023-05-07T14:54:28.234Z,3.15
2023-05-07T14:56:57.761Z,2.63
2023-05-07T14:59:26.103Z,2.28
2023-05-07T15:01:54.078Z,2.13
2023-05-07T15:04:21.983Z,3.72
2023-05-07T15:06:50.000Z,5.50
2023-05-07T15:09:18.016Z,2.33
2023-05-07T15:11:45.830Z,3.40
2023-05-07T15:14:17.206Z,5.53
2023-05-07T15:16:46.543Z,2.15
2023-05-07T15:19:15.969Z,2.35
2023-05-07T15:21:43.849Z,2.85
2023-05-07T15:24:11.662Z,2.20
2023-05-07T15:26:43.791Z,2.03
2023-05-07T15:29:11.741Z,2.08
2023-05-07T15:31:41.252Z,3.30
2023-05-07T15:34:09.205Z,1.83
2023-05-07T15:36:37.108Z,2.42
2023-05-07T15:39:05.461Z,2.40
2023-05-07T15:41:33.416Z,2.20
2023-05-07T15:44:01.513Z,2.35
2023-05-07T15:46:29.459Z,2.45
2023-05-07T15:48:58.891Z,2.10
2023-05-07T15:51:26.943Z,2.50
2023-05-07T15:53:54.781Z,4.40
2023-05-07T15:56:22.622Z,4.93
2023-05-07T15:58:50.433Z,3.50
2023-05-07T16:01:18.486Z,3.25
2023-05-07T16:03:46.822Z,3.95
2023-05-07T16:06:16.633Z,4.28
2023-05-07T16:08:44.951Z,3.35
2023-05-07T16:11:12.745Z,3.38
2023-05-07T16:13:40.782Z,3.88
2023-05-07T16:16:08.681Z,4.28
2023-05-07T16:18:37.037Z,3.38
2023-05-07T16:21:07.925Z,2.50
2023-05-07T16:23:37.550Z,2.35
2023-05-07T16:26:06.036Z,2.70
2023-05-07T16:28:34.011Z,3.22
2023-05-07T16:31:02.109Z,2.60
2023-05-07T16:33:29.915Z,2.90
2023-05-07T16:35:57.712Z,4.70
2023-05-07T16:38:28.553Z,3.90
2023-05-07T16:40:57.721Z,5.07
2023-05-07T16:43:25.773Z,5.65
2023-05-07T16:45:53.720Z,5.07
2023-05-07T16:48:23.765Z,3.40
2023-05-07T16:50:51.638Z,4.35
2023-05-07T16:53:21.495Z,4.13
2023-05-07T16:55:49.344Z,3.50
2023-05-07T16:58:18.572Z,3.75
2023-05-07T17:00:50.501Z,3.15
2023-05-07T17:03:19.585Z,2.65
2023-05-07T17:05:50.075Z,2.70
2023-05-07T17:08:17.938Z,2.40
2023-05-07T17:10:46.159Z,2.50
2023-05-07T17:13:14.244Z,3.53
2023-05-07T17:15:45.071Z,3.78
2023-05-07T17:18:13.099Z,5.72
2023-05-07T17:20:41.052Z,4.53
2023-05-07T17:23:08.958Z,4.47
2023-05-07T17:25:37.552Z,4.57
2023-05-07T17:28:07.439Z,4.88
2023-05-07T17:30:35.323Z,5.00
2023-05-07T17:33:19.321Z,3.50
2023-05-07T17:35:48.418Z,4.55
2023-05-07T17:38:16.250Z,5.10
2023-05-07T17:40:44.188Z,3.47
2023-05-07T17:43:12.021Z,3.15
2023-05-07T17:45:39.892Z,2.42
2023-05-07T17:48:09.144Z,3.92
2023-05-07T17:50:36.999Z,3.22
2023-05-07T17:53:06.018Z,4.47
2023-05-07T17:55:33.959Z,3.20
2023-05-07T17:58:03.204Z,4.22
2023-05-07T18:00:31.101Z,3.50
2023-05-07T18:03:00.516Z,3.30
2023-05-07T18:05:30.431Z,3.47
2023-05-07T18:07:58.340Z,3.92
2023-05-07T18:10:26.801Z,4.93
2023-05-07T18:12:54.780Z,4.53
2023-05-07T18:15:22.731Z,3.78
2023-05-07T18:17:50.861Z,3.30
2023-05-07T18:20:18.877Z,3.00
2023-05-07T18:22:50.112Z,2.97
2023-05-07T18:25:18.150Z,2.80
2023-05-07T18:27:48.051Z,4.20
2023-05-07T18:30:16.114Z,4.60
2023-05-07T18:32:44.023Z,3.50
2023-05-07T18:35:12.042Z,3.65
2023-05-07T18:37:39.931Z,3.42
2023-05-07T18:40:10.702Z,2.72
2023-05-07T18:42:38.800Z,3.42
2023-05-07T18:45:07.692Z,4.07
2023-05-07T18:47:35.631Z,3.53
2023-05-07T18:50:04.628Z,4.07
2023-05-07T18:52:33.650Z,3.97
2023-05-07T18:55:02.567Z,2.85
2023-05-07T18:57:32.209Z,2.95
2023-05-07T19:00:00.038Z,3.92
2023-05-07T19:02:27.983Z,3.05
2023-05-07T19:04:56.007Z,3.50
2023-05-07T19:07:23.900Z,3.40
2023-05-07T19:10:04.345Z,4.20
2023-05-07T19:12:35.043Z,4.00
2023-05-07T19:15:02.976Z,3.17
2023-05-07T19:17:30.934Z,3.17
2023-05-07T19:19:58.971Z,2.90
2023-05-07T19:22:26.914Z,3.70
2023-05-07T19:24:55.004Z,3.53
2023-05-07T19:27:22.892Z,4.82
2023-05-07T19:29:52.252Z,2.90
2023-05-07T19:32:21.322Z,2.80
2023-05-07T19:34:49.488Z,3.55
2023-05-07T19:37:24.058Z,3.22
2023-05-07T19:39:53.737Z,4.10
2023-05-07T19:42:21.675Z,3.50
2023-05-07T19:44:53.435Z,2.72
2023-05-07T19:47:21.280Z,4.70
2023-05-07T19:49:49.206Z,3.67
2023-05-07T19:52:19.258Z,2.72
2023-05-07T19:54:47.154Z,3.97
2023-05-07T19:57:16.835Z,3.75
2023-05-07T19:59:44.790Z,2.67
2023-05-07T20:02:15.216Z,5.32
2023-05-07T20:04:43.375Z,3.40
2023-05-07T20:07:11.283Z,3.63
2023-05-07T20:09:39.227Z,2.20
2023-05-07T20:12:07.870Z,3.30
2023-05-07T20:14:35.901Z,3.10
2023-05-07T20:17:03.732Z,3.72
2023-05-07T20:19:32.918Z,3.15
2023-05-07T20:22:00.672Z,4.30
2023-05-07T20:24:28.481Z,5.93
2023-05-07T20:26:56.491Z,4.78
2023-05-07T20:29:24.333Z,5.20
2023-05-07T20:31:52.208Z,5.20
2023-05-07T20:34:20.339Z,5.85
2023-05-07T20:36:49.586Z,6.63
2023-05-07T20:39:17.521Z,3.65
2023-05-07T20:41:45.475Z,4.63
2023-05-07T20:44:13.429Z,5.22
2023-05-07T20:46:41.356Z,5.07
2023-05-07T20:49:09.151Z,5.28
2023-05-07T20:51:37.337Z,5.30
2023-05-07T20:54:08.571Z,6.40
2023-05-07T20:56:36.438Z,4.90
2023-05-07T20:59:04.366Z,5.85
2023-05-07T21:01:34.684Z,6.10
2023-05-07T21:04:02.805Z,5.88
2023-05-07T21:06:30.793Z,5.32
2023-05-07T21:08:58.741Z,4.72
2023-05-07T21:11:28.002Z,5.32
2023-05-07T21:13:55.847Z,4.90
2023-05-07T21:16:23.774Z,5.53
2023-05-07T21:18:54.756Z,5.95
2023-05-07T21:21:22.625Z,6.45
2023-05-07T21:23:50.671Z,4.72
2023-05-07T21:26:19.596Z,6.60
2023-05-07T21:28:48.690Z,6.85
2023-05-07T21:31:16.837Z,7.78
2023-05-07T21:33:45.508Z,5.00
2023-05-07T21:36:13.448Z,6.20
2023-05-07T21:38:41.650Z,5.15
2023-05-07T21:41:12.887Z,7.85
2023-05-07T21:43:40.712Z,7.78
2023-05-07T21:46:10.117Z,6.45
2023-05-07T21:48:39.673Z,8.43
2023-05-07T21:51:08.906Z,7.00
2023-05-07T21:53:38.699Z,8.60
2023-05-07T21:56:07.069Z,9.18
2023-05-07T21:58:35.139Z,7.95
2023-05-07T22:01:02.949Z,6.35
2023-05-07T22:03:32.561Z,7.00
2023-05-07T22:06:03.168Z,14.02
2023-05-07T22:08:31.113Z,21.15
2023-05-07T22:10:59.203Z,10.32
2023-05-07T22:13:27.164Z,8.68
2023-05-07T22:15:58.098Z,9.18
2023-05-07T22:18:26.473Z,7.47
2023-05-07T22:20:55.796Z,8.95
2023-05-07T22:23:23.696Z,7.18
2023-05-07T22:25:51.545Z,7.35
2023-05-07T22:28:19.454Z,8.35
2023-05-07T22:30:47.490Z,7.22
2023-05-07T22:33:15.426Z,7.82
2023-05-07T22:35:43.543Z,9.00
2023-05-07T22:38:12.899Z,9.27
2023-05-07T22:40:43.082Z,9.23
2023-05-07T22:43:10.923Z,9.98
2023-05-07T22:45:38.801Z,9.50
2023-05-07T22:48:07.870Z,10.35
2023-05-07T22:50:37.749Z,11.20
2023-05-07T22:53:06.570Z,10.52
2023-05-07T22:55:35.851Z,11.55
2023-05-07T22:58:03.785Z,11.20
2023-05-07T23:00:31.916Z,12.20
2023-05-07T23:03:00.064Z,11.07
2023-05-07T23:05:28.063Z,11.90
2023-05-07T23:07:56.036Z,10.55
2023-05-07T23:10:23.922Z,11.60
2023-05-07T23:12:53.214Z,12.60
2023-05-07T23:15:21.374Z,11.10
2023-05-07T23:17:49.572Z,22.23
2023-05-07T23:20:17.480Z,12.38
2023-05-07T23:22:45.355Z,11.32
2023-05-07T23:25:13.140Z,13.00
2023-05-07T23:27:43.435Z,12.30
2023-05-07T23:30:14.308Z,15.07
2023-05-07T23:32:42.534Z,11.50
2023-05-07T23:35:10.736Z,11.07
2023-05-07T23:37:39.136Z,10.15
2023-05-07T23:40:08.152Z,11.50
2023-05-07T23:42:36.525Z,9.55
2023-05-07T23:45:05.238Z,8.90
2023-05-07T23:47:34.431Z,8.63
2023-05-07T23:50:02.258Z,8.70
2023-05-07T23:52:30.311Z,8.75
2023-05-07T23:54:58.190Z,7.53
2023-05-07T23:57:26.003Z,8.23
2023-05-07T23:59:53.924Z,8.40
